createdAt,value
2018-08-19T00:01:12.254Z,16.3
2018-08-19T00:06:14.716Z,16.1
2018-08-19T00:11:17.227Z,16
2018-08-19T00:16:19.639Z,16.1
2018-08-19T00:21:22.276Z,16.1
2018-08-19T00:26:24.603Z,16.2
2018-08-19T00:31:27.092Z,16.1
2018-08-19T00:36:29.549Z,16.1
2018-08-19T00:41:31.930Z,16
2018-08-19T00:46:34.417Z,15.8
2018-08-19T00:51:36.844Z,15.8
2018-08-19T00:56:39.339Z,15.8
2018-08-19T01:01:41.775Z,15.8
2018-08-19T01:06:44.438Z,15.8
2018-08-19T01:11:46.708Z,15.8
2018-08-19T01:16:49.142Z,15.8
2018-08-19T01:21:51.593Z,15.8
2018-08-19T01:26:54.053Z,15.8
2018-08-19T01:31:57.450Z,15.7
2018-08-19T01:36:59.006Z,15.7
2018-08-19T01:42:01.708Z,15.7
2018-08-19T01:47:03.917Z,15.6
2018-08-19T01:52:06.354Z,15.6
2018-08-19T01:57:08.826Z,15.6
2018-08-19T02:02:11.248Z,15.5
2018-08-19T02:07:13.707Z,15.6
2018-08-19T02:12:16.371Z,15.6
2018-08-19T02:17:18.647Z,15.6
2018-08-19T02:22:21.114Z,15.6
2018-08-19T02:27:23.795Z,15.6
2018-08-19T02:32:26.027Z,15.6
2018-08-19T02:37:28.475Z,15.5
2018-08-19T02:42:31.028Z,15.6
2018-08-19T02:47:33.473Z,15.6
2018-08-19T02:52:35.840Z,15.5
2018-08-19T02:57:38.559Z,15.5
2018-08-19T03:02:40.750Z,15.4
2018-08-19T03:07:43.252Z,15.4
2018-08-19T03:12:45.797Z,15.4
2018-08-19T03:17:48.113Z,15.4
2018-08-19T03:22:50.623Z,15.3
2018-08-19T03:27:53.039Z,15.2
2018-08-19T03:32:55.507Z,15.2
2018-08-19T03:37:58.091Z,15.2
2018-08-19T03:43:00.456Z,15.2
2018-08-19T03:48:02.869Z,15.1
2018-08-19T03:53:05.510Z,15
2018-08-19T03:58:07.889Z,15
2018-08-19T04:03:10.299Z,15
2018-08-19T04:08:12.720Z,15
2018-08-19T04:13:15.875Z,15
2018-08-19T04:18:17.701Z,15
2018-08-19T04:23:20.154Z,15.1
2018-08-19T04:28:22.824Z,15.2
2018-08-19T04:33:25.182Z,15.3
2018-08-19T04:38:28.003Z,15.5
2018-08-19T04:43:29.968Z,15.6
2018-08-19T04:48:32.396Z,15.9
2018-08-19T04:53:34.841Z,16
2018-08-19T04:58:37.311Z,16.4
2018-08-19T05:03:40.294Z,16.8
2018-08-19T05:08:42.224Z,17.3
2018-08-19T05:13:44.678Z,17.8
2018-08-19T05:18:47.129Z,19.3
2018-08-19T05:23:50.309Z,21.8
2018-08-19T05:28:52.106Z,24.1
2018-08-19T05:33:54.507Z,25.8
2018-08-19T05:38:56.954Z,27.2
2018-08-19T05:43:59.604Z,28.2
2018-08-19T05:49:02.134Z,29.4
2018-08-19T05:54:04.748Z,30.1
2018-08-19T05:59:06.794Z,30.3
2018-08-19T06:04:09.668Z,30.3
2018-08-19T06:09:11.796Z,30.5
2018-08-19T06:14:14.757Z,31.5
2018-08-19T06:19:16.914Z,31.8
2018-08-19T06:24:19.212Z,32.1
2018-08-19T06:29:21.959Z,32.3
2018-08-19T06:34:24.033Z,32.3
2018-08-19T06:39:26.509Z,32.6
2018-08-19T06:44:28.971Z,33.7
2018-08-19T06:49:31.587Z,34.5
2018-08-19T06:54:33.846Z,34.8
2018-08-19T06:59:36.313Z,35
2018-08-19T07:04:38.781Z,36.4
2018-08-19T07:09:41.226Z,36.7
2018-08-19T07:14:43.700Z,37.3
2018-08-19T07:19:46.158Z,37.3
2018-08-19T07:24:48.612Z,37.5
2018-08-19T07:29:51.122Z,38.1
2018-08-19T07:34:53.555Z,37.2
2018-08-19T07:39:56.001Z,37.6
2018-08-19T07:44:58.457Z,37.4
2018-08-19T07:50:00.958Z,38.1
2018-08-19T07:55:03.414Z,38.7
2018-08-19T08:00:06.045Z,39.7
2018-08-19T08:05:08.540Z,40.1
2018-08-19T08:10:11.161Z,39.7
2018-08-19T08:15:13.369Z,39.5
2018-08-19T08:20:15.747Z,39.7
2018-08-19T08:25:18.807Z,40.3
2018-08-19T08:30:20.686Z,40.5
2018-08-19T08:35:23.056Z,39.6
2018-08-19T08:40:25.514Z,39.9
2018-08-19T08:45:28.045Z,40.1
2018-08-19T08:50:30.457Z,40
2018-08-19T08:55:32.903Z,39.8
2018-08-19T09:00:35.369Z,40.1
2018-08-19T09:05:37.855Z,40.7
2018-08-19T09:10:40.371Z,40.7
2018-08-19T09:15:42.817Z,38.8
2018-08-19T09:20:45.616Z,36.2
2018-08-19T09:25:47.789Z,33.8
2018-08-19T09:30:50.267Z,31.9
2018-08-19T09:35:52.887Z,30.8
2018-08-19T09:40:55.118Z,30.2
2018-08-19T09:45:57.505Z,29.7
2018-08-19T09:50:59.982Z,29.2
